<?xml version="1.0" encoding="UTF-8" standalone="no" ?>
<gpx xmlns="http://www.topografix.com/GPX/1/1" xmlns:xsi="http://www.w3.org/2001/XMLSchema-instance" xsi:schemaLocation="http://www.topografix.com/GPX/1/1 http://www.topografix.com/GPX/1/1/gpx.xsd" version="1.1" creator="VisuGPX - https://www.visugpx.com">
  <metadata>
    <name>Copponex_-_Habergement</name>
  </metadata>
  <trk>
    <name><![CDATA[Copponex_-_Habergement]]></name>
    <trkseg>
      <trkpt lat="46.05547" lon="6.08602">
        <ele>750</ele>
        <time>2020-03-28T14:40:00.000Z</time>
      </trkpt>
      <trkpt lat="46.05459" lon="6.08639">
        <ele>746</ele>
        <time>2020-03-28T14:42:01.506Z</time>
      </trkpt>
      <trkpt lat="46.05475" lon="6.08682">
        <ele>750</ele>
        <time>2020-03-28T14:42:46.959Z</time>
      </trkpt>
      <trkpt lat="46.05477" lon="6.0868">
        <ele>750</ele>
        <time>2020-03-28T14:42:50.257Z</time>
      </trkpt>
      <trkpt lat="46.0548" lon="6.08687">
        <ele>751</ele>
        <time>2020-03-28T14:42:57.875Z</time>
      </trkpt>
      <trkpt lat="46.05489" lon="6.08721">
        <ele>756</ele>
        <time>2020-03-28T14:43:31.571Z</time>
      </trkpt>
      <trkpt lat="46.05487" lon="6.08746">
        <ele>759</ele>
        <time>2020-03-28T14:43:54.874Z</time>
      </trkpt>
      <trkpt lat="46.0547" lon="6.08793">
        <ele>764</ele>
        <time>2020-03-28T14:44:43.952Z</time>
      </trkpt>
      <trkpt lat="46.05466" lon="6.08808">
        <ele>766</ele>
        <time>2020-03-28T14:44:58.832Z</time>
      </trkpt>
      <trkpt lat="46.05463" lon="6.08833">
        <ele>770</ele>
        <time>2020-03-28T14:45:22.325Z</time>
      </trkpt>
      <trkpt lat="46.05448" lon="6.0887">
        <ele>776</ele>
        <time>2020-03-28T14:46:02.005Z</time>
      </trkpt>
      <trkpt lat="46.05442" lon="6.08897">
        <ele>780</ele>
        <time>2020-03-28T14:46:28.257Z</time>
      </trkpt>
      <trkpt lat="46.05442" lon="6.08919">
        <ele>785</ele>
        <time>2020-03-28T14:46:48.629Z</time>
      </trkpt>
      <trkpt lat="46.0544" lon="6.08931">
        <ele>787</ele>
        <time>2020-03-28T14:47:00.057Z</time>
      </trkpt>
      <trkpt lat="46.05435" lon="6.08947">
        <ele>790</ele>
        <time>2020-03-28T14:47:16.306Z</time>
      </trkpt>
      <trkpt lat="46.05425" lon="6.08959">
        <ele>792</ele>
        <time>2020-03-28T14:47:33.670Z</time>
      </trkpt>
      <trkpt lat="46.05409" lon="6.08967">
        <ele>793</ele>
        <time>2020-03-28T14:47:56.268Z</time>
      </trkpt>
      <trkpt lat="46.05395" lon="6.0897">
        <ele>794</ele>
        <time>2020-03-28T14:48:15.154Z</time>
      </trkpt>
      <trkpt lat="46.05377" lon="6.08978">
        <ele>796</ele>
        <time>2020-03-28T14:48:40.289Z</time>
      </trkpt>
      <trkpt lat="46.05381" lon="6.08979">
        <ele>796</ele>
        <time>2020-03-28T14:48:45.706Z</time>
      </trkpt>
      <trkpt lat="46.05381" lon="6.08979">
        <ele>796</ele>
        <time>2020-03-28T14:48:45.706Z</time>
      </trkpt>
      <trkpt lat="46.05377" lon="6.08978">
        <ele>796</ele>
        <time>2020-03-28T14:48:51.123Z</time>
      </trkpt>
      <trkpt lat="46.05336" lon="6.08969">
        <ele>792</ele>
        <time>2020-03-28T14:49:46.462Z</time>
      </trkpt>
      <trkpt lat="46.05309" lon="6.08994">
        <ele>798</ele>
        <time>2020-03-28T14:50:29.286Z</time>
      </trkpt>
      <trkpt lat="46.05293" lon="6.08998">
        <ele>799</ele>
        <time>2020-03-28T14:50:50.954Z</time>
      </trkpt>
      <trkpt lat="46.05274" lon="6.09008">
        <ele>800</ele>
        <time>2020-03-28T14:51:17.945Z</time>
      </trkpt>
      <trkpt lat="46.05238" lon="6.09038">
        <ele>805</ele>
        <time>2020-03-28T14:52:13.436Z</time>
      </trkpt>
      <trkpt lat="46.05165" lon="6.09192">
        <ele>826</ele>
        <time>2020-03-28T14:55:06.137Z</time>
      </trkpt>
      <trkpt lat="46.05158" lon="6.09223">
        <ele>829</ele>
        <time>2020-03-28T14:55:36.326Z</time>
      </trkpt>
      <trkpt lat="46.05139" lon="6.09253">
        <ele>831</ele>
        <time>2020-03-28T14:56:13.937Z</time>
      </trkpt>
      <trkpt lat="46.05122" lon="6.09274">
        <ele>832</ele>
        <time>2020-03-28T14:56:43.816Z</time>
      </trkpt>
      <trkpt lat="46.0512" lon="6.09297">
        <ele>836</ele>
        <time>2020-03-28T14:57:05.282Z</time>
      </trkpt>
      <trkpt lat="46.05118" lon="6.0931">
        <ele>837</ele>
        <time>2020-03-28T14:57:17.613Z</time>
      </trkpt>
      <trkpt lat="46.05103" lon="6.09349">
        <ele>841</ele>
        <time>2020-03-28T14:57:58.904Z</time>
      </trkpt>
      <trkpt lat="46.05101" lon="6.09366">
        <ele>843</ele>
        <time>2020-03-28T14:58:14.872Z</time>
      </trkpt>
      <trkpt lat="46.05086" lon="6.09403">
        <ele>846</ele>
        <time>2020-03-28T14:58:54.554Z</time>
      </trkpt>
      <trkpt lat="46.0507" lon="6.09424">
        <ele>846</ele>
        <time>2020-03-28T14:59:23.433Z</time>
      </trkpt>
      <trkpt lat="46.05068" lon="6.09436">
        <ele>848</ele>
        <time>2020-03-28T14:59:34.862Z</time>
      </trkpt>
      <trkpt lat="46.0507" lon="6.09449">
        <ele>850</ele>
        <time>2020-03-28T14:59:47.193Z</time>
      </trkpt>
      <trkpt lat="46.05076" lon="6.09456">
        <ele>852</ele>
        <time>2020-03-28T14:59:57.494Z</time>
      </trkpt>
      <trkpt lat="46.05086" lon="6.09463">
        <ele>855</ele>
        <time>2020-03-28T15:00:12.329Z</time>
      </trkpt>
      <trkpt lat="46.05068" lon="6.09517">
        <ele>861</ele>
        <time>2020-03-28T15:01:07.805Z</time>
      </trkpt>
      <trkpt lat="46.05068" lon="6.09537">
        <ele>864</ele>
        <time>2020-03-28T15:01:26.326Z</time>
      </trkpt>
      <trkpt lat="46.05054" lon="6.09575">
        <ele>866</ele>
        <time>2020-03-28T15:02:06.167Z</time>
      </trkpt>
      <trkpt lat="46.05052" lon="6.09585">
        <ele>867</ele>
        <time>2020-03-28T15:02:15.804Z</time>
      </trkpt>
      <trkpt lat="46.0506" lon="6.09603">
        <ele>871</ele>
        <time>2020-03-28T15:02:35.598Z</time>
      </trkpt>
      <trkpt lat="46.05074" lon="6.09621">
        <ele>876</ele>
        <time>2020-03-28T15:03:00.635Z</time>
      </trkpt>
      <trkpt lat="46.05074" lon="6.09641">
        <ele>878</ele>
        <time>2020-03-28T15:03:19.156Z</time>
      </trkpt>
      <trkpt lat="46.05078" lon="6.09657">
        <ele>880</ele>
        <time>2020-03-28T15:03:34.905Z</time>
      </trkpt>
      <trkpt lat="46.0509" lon="6.09693">
        <ele>886</ele>
        <time>2020-03-28T15:04:11.889Z</time>
      </trkpt>
      <trkpt lat="46.0511" lon="6.09727">
        <ele>895</ele>
        <time>2020-03-28T15:04:53.163Z</time>
      </trkpt>
      <trkpt lat="46.0511" lon="6.09727">
        <ele>895</ele>
        <time>2020-03-28T15:04:53.163Z</time>
      </trkpt>
      <trkpt lat="46.0511" lon="6.09728">
        <ele>895</ele>
        <time>2020-03-28T15:04:54.089Z</time>
      </trkpt>
      <trkpt lat="46.05121" lon="6.09737">
        <ele>900</ele>
        <time>2020-03-28T15:05:10.968Z</time>
      </trkpt>
      <trkpt lat="46.05126" lon="6.09748">
        <ele>903</ele>
        <time>2020-03-28T15:05:23.145Z</time>
      </trkpt>
      <trkpt lat="46.05138" lon="6.09757">
        <ele>908</ele>
        <time>2020-03-28T15:05:41.196Z</time>
      </trkpt>
      <trkpt lat="46.05151" lon="6.09773">
        <ele>915</ele>
        <time>2020-03-28T15:06:04.009Z</time>
      </trkpt>
      <trkpt lat="46.05159" lon="6.09788">
        <ele>919</ele>
        <time>2020-03-28T15:06:21.528Z</time>
      </trkpt>
      <trkpt lat="46.05179" lon="6.09812">
        <ele>927</ele>
        <time>2020-03-28T15:06:56.257Z</time>
      </trkpt>
      <trkpt lat="46.05189" lon="6.09833">
        <ele>932</ele>
        <time>2020-03-28T15:07:19.841Z</time>
      </trkpt>
      <trkpt lat="46.05195" lon="6.09852">
        <ele>935</ele>
        <time>2020-03-28T15:07:39.172Z</time>
      </trkpt>
      <trkpt lat="46.05206" lon="6.09876">
        <ele>941</ele>
        <time>2020-03-28T15:08:05.806Z</time>
      </trkpt>
      <trkpt lat="46.05209" lon="6.09885">
        <ele>943</ele>
        <time>2020-03-28T15:08:15.052Z</time>
      </trkpt>
      <trkpt lat="46.05206" lon="6.09896">
        <ele>943</ele>
        <time>2020-03-28T15:08:25.997Z</time>
      </trkpt>
      <trkpt lat="46.05196" lon="6.09909">
        <ele>942</ele>
        <time>2020-03-28T15:08:43.968Z</time>
      </trkpt>
      <trkpt lat="46.05196" lon="6.09918">
        <ele>943</ele>
        <time>2020-03-28T15:08:52.302Z</time>
      </trkpt>
      <trkpt lat="46.05212" lon="6.09947">
        <ele>950</ele>
        <time>2020-03-28T15:09:26.609Z</time>
      </trkpt>
      <trkpt lat="46.05242" lon="6.09982">
        <ele>960</ele>
        <time>2020-03-28T15:10:18.115Z</time>
      </trkpt>
      <trkpt lat="46.0524" lon="6.1">
        <ele>961</ele>
        <time>2020-03-28T15:10:34.996Z</time>
      </trkpt>
      <trkpt lat="46.05234" lon="6.10018">
        <ele>962</ele>
        <time>2020-03-28T15:10:53.488Z</time>
      </trkpt>
      <trkpt lat="46.05215" lon="6.10044">
        <ele>961</ele>
        <time>2020-03-28T15:11:28.451Z</time>
      </trkpt>
      <trkpt lat="46.05199" lon="6.10059">
        <ele>961</ele>
        <time>2020-03-28T15:11:53.921Z</time>
      </trkpt>
      <trkpt lat="46.05175" lon="6.10098">
        <ele>963</ele>
        <time>2020-03-28T15:12:42.190Z</time>
      </trkpt>
      <trkpt lat="46.05169" lon="6.10119">
        <ele>964</ele>
        <time>2020-03-28T15:13:03.220Z</time>
      </trkpt>
      <trkpt lat="46.05164" lon="6.10167">
        <ele>968</ele>
        <time>2020-03-28T15:13:48.168Z</time>
      </trkpt>
      <trkpt lat="46.0515" lon="6.10184">
        <ele>967</ele>
        <time>2020-03-28T15:14:12.598Z</time>
      </trkpt>
      <trkpt lat="46.0514" lon="6.10216">
        <ele>965</ele>
        <time>2020-03-28T15:14:45.097Z</time>
      </trkpt>
      <trkpt lat="46.05142" lon="6.10244">
        <ele>965</ele>
        <time>2020-03-28T15:15:11.163Z</time>
      </trkpt>
      <trkpt lat="46.0517" lon="6.10272">
        <ele>970</ele>
        <time>2020-03-28T15:15:56.641Z</time>
      </trkpt>
      <trkpt lat="46.05174" lon="6.10282">
        <ele>971</ele>
        <time>2020-03-28T15:16:07.329Z</time>
      </trkpt>
      <trkpt lat="46.0517" lon="6.103">
        <ele>970</ele>
        <time>2020-03-28T15:16:24.831Z</time>
      </trkpt>
      <trkpt lat="46.05174" lon="6.10301">
        <ele>970</ele>
        <time>2020-03-28T15:16:30.248Z</time>
      </trkpt>
      <trkpt lat="46.05174" lon="6.10301">
        <ele>970</ele>
        <time>2020-03-28T15:16:30.248Z</time>
      </trkpt>
      <trkpt lat="46.0517" lon="6.103">
        <ele>970</ele>
        <time>2020-03-28T15:16:35.665Z</time>
      </trkpt>
      <trkpt lat="46.05161" lon="6.10299">
        <ele>968</ele>
        <time>2020-03-28T15:16:47.710Z</time>
      </trkpt>
      <trkpt lat="46.05146" lon="6.1031">
        <ele>966</ele>
        <time>2020-03-28T15:17:10.168Z</time>
      </trkpt>
      <trkpt lat="46.05098" lon="6.10311">
        <ele>957</ele>
        <time>2020-03-28T15:18:14.223Z</time>
      </trkpt>
      <trkpt lat="46.05075" lon="6.10322">
        <ele>951</ele>
        <time>2020-03-28T15:18:46.559Z</time>
      </trkpt>
      <trkpt lat="46.05068" lon="6.10338">
        <ele>950</ele>
        <time>2020-03-28T15:19:04.074Z</time>
      </trkpt>
      <trkpt lat="46.05065" lon="6.1037">
        <ele>951</ele>
        <time>2020-03-28T15:19:33.977Z</time>
      </trkpt>
      <trkpt lat="46.05053" lon="6.10393">
        <ele>949</ele>
        <time>2020-03-28T15:20:00.624Z</time>
      </trkpt>
      <trkpt lat="46.04965" lon="6.1047">
        <ele>933</ele>
        <time>2020-03-28T15:22:18.002Z</time>
      </trkpt>
      <trkpt lat="46.04956" lon="6.10484">
        <ele>931</ele>
        <time>2020-03-28T15:22:35.674Z</time>
      </trkpt>
      <trkpt lat="46.0495" lon="6.10508">
        <ele>930</ele>
        <time>2020-03-28T15:22:59.298Z</time>
      </trkpt>
      <trkpt lat="46.0494" lon="6.10523">
        <ele>928</ele>
        <time>2020-03-28T15:23:18.560Z</time>
      </trkpt>
      <trkpt lat="46.04944" lon="6.10527">
        <ele>929</ele>
        <time>2020-03-28T15:23:25.057Z</time>
      </trkpt>
      <trkpt lat="46.04944" lon="6.10527">
        <ele>929</ele>
        <time>2020-03-28T15:23:25.057Z</time>
      </trkpt>
      <trkpt lat="46.0494" lon="6.10523">
        <ele>928</ele>
        <time>2020-03-28T15:23:31.554Z</time>
      </trkpt>
      <trkpt lat="46.0492" lon="6.10513">
        <ele>923</ele>
        <time>2020-03-28T15:23:59.802Z</time>
      </trkpt>
      <trkpt lat="46.04904" lon="6.10496">
        <ele>918</ele>
        <time>2020-03-28T15:24:26.328Z</time>
      </trkpt>
      <trkpt lat="46.04889" lon="6.10489">
        <ele>914</ele>
        <time>2020-03-28T15:24:47.367Z</time>
      </trkpt>
      <trkpt lat="46.04854" lon="6.10486">
        <ele>905</ele>
        <time>2020-03-28T15:25:34.151Z</time>
      </trkpt>
      <trkpt lat="46.04829" lon="6.10498">
        <ele>899</ele>
        <time>2020-03-28T15:26:09.312Z</time>
      </trkpt>
      <trkpt lat="46.04786" lon="6.10586">
        <ele>893</ele>
        <time>2020-03-28T15:27:48.981Z</time>
      </trkpt>
      <trkpt lat="46.04711" lon="6.10681">
        <ele>885</ele>
        <time>2020-03-28T15:30:02.232Z</time>
      </trkpt>
      <trkpt lat="46.04663" lon="6.10709">
        <ele>881</ele>
        <time>2020-03-28T15:31:11.331Z</time>
      </trkpt>
      <trkpt lat="46.04656" lon="6.1073">
        <ele>882</ele>
        <time>2020-03-28T15:31:32.906Z</time>
      </trkpt>
      <trkpt lat="46.04657" lon="6.10716">
        <ele>881</ele>
        <time>2020-03-28T15:31:45.940Z</time>
      </trkpt>
      <trkpt lat="46.04657" lon="6.10716">
        <ele>881</ele>
        <time>2020-03-28T15:31:45.940Z</time>
      </trkpt>
      <trkpt lat="46.04658" lon="6.10703">
        <ele>880</ele>
        <time>2020-03-28T15:31:58.053Z</time>
      </trkpt>
      <trkpt lat="46.04663" lon="6.10652">
        <ele>877</ele>
        <time>2020-03-28T15:32:45.754Z</time>
      </trkpt>
      <trkpt lat="46.04663" lon="6.10627">
        <ele>875</ele>
        <time>2020-03-28T15:33:08.907Z</time>
      </trkpt>
      <trkpt lat="46.04655" lon="6.10573">
        <ele>872</ele>
        <time>2020-03-28T15:34:00.045Z</time>
      </trkpt>
      <trkpt lat="46.04649" lon="6.10548">
        <ele>870</ele>
        <time>2020-03-28T15:34:24.543Z</time>
      </trkpt>
      <trkpt lat="46.04639" lon="6.10497">
        <ele>866</ele>
        <time>2020-03-28T15:35:13.624Z</time>
      </trkpt>
      <trkpt lat="46.0464" lon="6.10475">
        <ele>865</ele>
        <time>2020-03-28T15:35:34.043Z</time>
      </trkpt>
      <trkpt lat="46.04643" lon="6.10455">
        <ele>864</ele>
        <time>2020-03-28T15:35:52.993Z</time>
      </trkpt>
      <trkpt lat="46.04646" lon="6.10438">
        <ele>864</ele>
        <time>2020-03-28T15:36:09.238Z</time>
      </trkpt>
      <trkpt lat="46.04645" lon="6.10408">
        <ele>861</ele>
        <time>2020-03-28T15:36:37.054Z</time>
      </trkpt>
      <trkpt lat="46.04643" lon="6.1039">
        <ele>860</ele>
        <time>2020-03-28T15:36:53.937Z</time>
      </trkpt>
      <trkpt lat="46.04632" lon="6.10338">
        <ele>854</ele>
        <time>2020-03-28T15:37:44.283Z</time>
      </trkpt>
      <trkpt lat="46.04626" lon="6.10299">
        <ele>850</ele>
        <time>2020-03-28T15:38:21.279Z</time>
      </trkpt>
      <trkpt lat="46.04625" lon="6.1025">
        <ele>848</ele>
        <time>2020-03-28T15:39:06.679Z</time>
      </trkpt>
      <trkpt lat="46.04632" lon="6.10205">
        <ele>847</ele>
        <time>2020-03-28T15:39:49.389Z</time>
      </trkpt>
      <trkpt lat="46.04643" lon="6.10147">
        <ele>845</ele>
        <time>2020-03-28T15:40:45.074Z</time>
      </trkpt>
      <trkpt lat="46.04674" lon="6.10029">
        <ele>840</ele>
        <time>2020-03-28T15:42:41.924Z</time>
      </trkpt>
      <trkpt lat="46.04685" lon="6.09947">
        <ele>833</ele>
        <time>2020-03-28T15:43:59.272Z</time>
      </trkpt>
      <trkpt lat="46.04703" lon="6.09874">
        <ele>830</ele>
        <time>2020-03-28T15:45:11.019Z</time>
      </trkpt>
      <trkpt lat="46.04714" lon="6.0985">
        <ele>830</ele>
        <time>2020-03-28T15:45:37.655Z</time>
      </trkpt>
      <trkpt lat="46.04714" lon="6.0985">
        <ele>830</ele>
        <time>2020-03-28T15:45:37.655Z</time>
      </trkpt>
      <trkpt lat="46.04747" lon="6.09781">
        <ele>830</ele>
        <time>2020-03-28T15:46:55.259Z</time>
      </trkpt>
      <trkpt lat="46.04803" lon="6.09705">
        <ele>831</ele>
        <time>2020-03-28T15:48:37.911Z</time>
      </trkpt>
      <trkpt lat="46.04822" lon="6.09659">
        <ele>830</ele>
        <time>2020-03-28T15:49:27.485Z</time>
      </trkpt>
      <trkpt lat="46.04842" lon="6.09625">
        <ele>830</ele>
        <time>2020-03-28T15:50:08.760Z</time>
      </trkpt>
      <trkpt lat="46.04865" lon="6.09615">
        <ele>833</ele>
        <time>2020-03-28T15:50:40.817Z</time>
      </trkpt>
      <trkpt lat="46.04881" lon="6.09613">
        <ele>835</ele>
        <time>2020-03-28T15:51:02.247Z</time>
      </trkpt>
      <trkpt lat="46.04901" lon="6.09587">
        <ele>835</ele>
        <time>2020-03-28T15:51:38.191Z</time>
      </trkpt>
      <trkpt lat="46.04907" lon="6.09539">
        <ele>829</ele>
        <time>2020-03-28T15:52:23.358Z</time>
      </trkpt>
      <trkpt lat="46.04914" lon="6.09493">
        <ele>823</ele>
        <time>2020-03-28T15:53:06.970Z</time>
      </trkpt>
      <trkpt lat="46.04934" lon="6.0945">
        <ele>820</ele>
        <time>2020-03-28T15:53:54.907Z</time>
      </trkpt>
      <trkpt lat="46.04988" lon="6.09376">
        <ele>820</ele>
        <time>2020-03-28T15:55:34.346Z</time>
      </trkpt>
      <trkpt lat="46.05029" lon="6.09346">
        <ele>825</ele>
        <time>2020-03-28T15:56:35.704Z</time>
      </trkpt>
      <trkpt lat="46.0512" lon="6.09297">
        <ele>836</ele>
        <time>2020-03-28T15:58:45.331Z</time>
      </trkpt>
      <trkpt lat="46.05172" lon="6.09265">
        <ele>836</ele>
        <time>2020-03-28T16:00:00.780Z</time>
      </trkpt>
      <trkpt lat="46.05242" lon="6.09188">
        <ele>831</ele>
        <time>2020-03-28T16:01:58.290Z</time>
      </trkpt>
      <trkpt lat="46.05296" lon="6.09152">
        <ele>830</ele>
        <time>2020-03-28T16:03:17.683Z</time>
      </trkpt>
      <trkpt lat="46.05338" lon="6.09146">
        <ele>832</ele>
        <time>2020-03-28T16:04:14.000Z</time>
      </trkpt>
      <trkpt lat="46.05358" lon="6.09152">
        <ele>834</ele>
        <time>2020-03-28T16:04:41.259Z</time>
      </trkpt>
      <trkpt lat="46.05403" lon="6.09148">
        <ele>834</ele>
        <time>2020-03-28T16:05:41.418Z</time>
      </trkpt>
      <trkpt lat="46.05435" lon="6.09131">
        <ele>829</ele>
        <time>2020-03-28T16:06:26.926Z</time>
      </trkpt>
      <trkpt lat="46.0549" lon="6.09123">
        <ele>832</ele>
        <time>2020-03-28T16:07:40.688Z</time>
      </trkpt>
      <trkpt lat="46.05511" lon="6.09107">
        <ele>831</ele>
        <time>2020-03-28T16:08:12.385Z</time>
      </trkpt>
      <trkpt lat="46.05509" lon="6.09082">
        <ele>825</ele>
        <time>2020-03-28T16:08:35.688Z</time>
      </trkpt>
      <trkpt lat="46.05493" lon="6.09047">
        <ele>815</ele>
        <time>2020-03-28T16:09:14.498Z</time>
      </trkpt>
      <trkpt lat="46.0548" lon="6.08977">
        <ele>800</ele>
        <time>2020-03-28T16:10:21.598Z</time>
      </trkpt>
      <trkpt lat="46.05478" lon="6.08942">
        <ele>793</ele>
        <time>2020-03-28T16:10:54.117Z</time>
      </trkpt>
      <trkpt lat="46.05487" lon="6.08939">
        <ele>793</ele>
        <time>2020-03-28T16:11:06.443Z</time>
      </trkpt>
      <trkpt lat="46.05487" lon="6.08939">
        <ele>793</ele>
        <time>2020-03-28T16:11:06.443Z</time>
      </trkpt>
      <trkpt lat="46.05478" lon="6.08942">
        <ele>793</ele>
        <time>2020-03-28T16:11:18.769Z</time>
      </trkpt>
      <trkpt lat="46.05467" lon="6.0895">
        <ele>793</ele>
        <time>2020-03-28T16:11:35.210Z</time>
      </trkpt>
      <trkpt lat="46.05434" lon="6.08975">
        <ele>795</ele>
        <time>2020-03-28T16:12:24.958Z</time>
      </trkpt>
      <trkpt lat="46.0542" lon="6.08982">
        <ele>797</ele>
        <time>2020-03-28T16:12:44.731Z</time>
      </trkpt>
      <trkpt lat="46.05403" lon="6.08985">
        <ele>797</ele>
        <time>2020-03-28T16:13:07.584Z</time>
      </trkpt>
      <trkpt lat="46.05392" lon="6.08982">
        <ele>797</ele>
        <time>2020-03-28T16:13:22.522Z</time>
      </trkpt>
      <trkpt lat="46.05377" lon="6.08978">
        <ele>796</ele>
        <time>2020-03-28T16:13:42.877Z</time>
      </trkpt>
      <trkpt lat="46.05395" lon="6.0897">
        <ele>794</ele>
        <time>2020-03-28T16:14:08.012Z</time>
      </trkpt>
      <trkpt lat="46.05409" lon="6.08967">
        <ele>793</ele>
        <time>2020-03-28T16:14:26.898Z</time>
      </trkpt>
      <trkpt lat="46.05425" lon="6.08959">
        <ele>792</ele>
        <time>2020-03-28T16:14:49.496Z</time>
      </trkpt>
      <trkpt lat="46.05435" lon="6.08947">
        <ele>790</ele>
        <time>2020-03-28T16:15:06.860Z</time>
      </trkpt>
      <trkpt lat="46.0544" lon="6.08931">
        <ele>787</ele>
        <time>2020-03-28T16:15:23.109Z</time>
      </trkpt>
      <trkpt lat="46.05442" lon="6.08919">
        <ele>785</ele>
        <time>2020-03-28T16:15:34.537Z</time>
      </trkpt>
      <trkpt lat="46.05442" lon="6.08897">
        <ele>780</ele>
        <time>2020-03-28T16:15:54.909Z</time>
      </trkpt>
      <trkpt lat="46.05448" lon="6.0887">
        <ele>776</ele>
        <time>2020-03-28T16:16:21.161Z</time>
      </trkpt>
      <trkpt lat="46.05463" lon="6.08833">
        <ele>770</ele>
        <time>2020-03-28T16:17:00.841Z</time>
      </trkpt>
      <trkpt lat="46.05466" lon="6.08808">
        <ele>766</ele>
        <time>2020-03-28T16:17:24.334Z</time>
      </trkpt>
      <trkpt lat="46.0547" lon="6.08793">
        <ele>764</ele>
        <time>2020-03-28T16:17:39.214Z</time>
      </trkpt>
      <trkpt lat="46.05487" lon="6.08746">
        <ele>759</ele>
        <time>2020-03-28T16:18:28.292Z</time>
      </trkpt>
      <trkpt lat="46.05489" lon="6.08721">
        <ele>756</ele>
        <time>2020-03-28T16:18:51.595Z</time>
      </trkpt>
      <trkpt lat="46.0548" lon="6.08687">
        <ele>751</ele>
        <time>2020-03-28T16:19:25.291Z</time>
      </trkpt>
      <trkpt lat="46.05468" lon="6.08661">
        <ele>748</ele>
        <time>2020-03-28T16:19:54.205Z</time>
      </trkpt>
      <trkpt lat="46.05424" lon="6.08669">
        <ele>744</ele>
        <time>2020-03-28T16:20:53.381Z</time>
      </trkpt>
      <trkpt lat="46.05414" lon="6.0868">
        <ele>744</ele>
        <time>2020-03-28T16:21:10.168Z</time>
      </trkpt>
      <trkpt lat="46.05405" lon="6.08696">
        <ele>745</ele>
        <time>2020-03-28T16:21:29.240Z</time>
      </trkpt>
      <trkpt lat="46.05376" lon="6.08708">
        <ele>744</ele>
        <time>2020-03-28T16:22:09.500Z</time>
      </trkpt>
      <trkpt lat="46.0537" lon="6.08727">
        <ele>745</ele>
        <time>2020-03-28T16:22:28.830Z</time>
      </trkpt>
      <trkpt lat="46.05365" lon="6.08739">
        <ele>746</ele>
        <time>2020-03-28T16:22:41.791Z</time>
      </trkpt>
      <trkpt lat="46.05326" lon="6.08749">
        <ele>744</ele>
        <time>2020-03-28T16:23:34.648Z</time>
      </trkpt>
      <trkpt lat="46.05314" lon="6.08748">
        <ele>744</ele>
        <time>2020-03-28T16:23:50.687Z</time>
      </trkpt>
      <trkpt lat="46.05307" lon="6.08746">
        <ele>744</ele>
        <time>2020-03-28T16:24:00.209Z</time>
      </trkpt>
      <trkpt lat="46.05311" lon="6.08714">
        <ele>741</ele>
        <time>2020-03-28T16:24:30.318Z</time>
      </trkpt>
      <trkpt lat="46.05314" lon="6.08673">
        <ele>738</ele>
        <time>2020-03-28T16:25:08.495Z</time>
      </trkpt>
      <trkpt lat="46.05311" lon="6.08651">
        <ele>736</ele>
        <time>2020-03-28T16:25:29.257Z</time>
      </trkpt>
      <trkpt lat="46.05322" lon="6.08636">
        <ele>735</ele>
        <time>2020-03-28T16:25:49.465Z</time>
      </trkpt>
      <trkpt lat="46.05328" lon="6.08635">
        <ele>735</ele>
        <time>2020-03-28T16:25:57.524Z</time>
      </trkpt>
      <trkpt lat="46.05334" lon="6.08633">
        <ele>735</ele>
        <time>2020-03-28T16:26:05.741Z</time>
      </trkpt>
      <trkpt lat="46.05362" lon="6.0865">
        <ele>738</ele>
        <time>2020-03-28T16:26:46.284Z</time>
      </trkpt>
      <trkpt lat="46.05377" lon="6.08649">
        <ele>739</ele>
        <time>2020-03-28T16:27:06.320Z</time>
      </trkpt>
      <trkpt lat="46.05431" lon="6.08637">
        <ele>742</ele>
        <time>2020-03-28T16:28:19.226Z</time>
      </trkpt>
      <trkpt lat="46.05466" lon="6.08629">
        <ele>746</ele>
        <time>2020-03-28T16:29:06.512Z</time>
      </trkpt>
      <trkpt lat="46.05548" lon="6.08611">
        <ele>751</ele>
        <time>2020-03-28T16:30:57.190Z</time>
      </trkpt>
    </trkseg>
  </trk>
</gpx>